Flugplatz Nannhausen (EDRN)

Hier findest Du alle Informationen zum Flugplatz Nannhausen (EDRN).

Informationen für Piloten zum Flugplatz Nannhausen

Hier findest Du alle relevanten Informationen, die Du als Pilot benötigst, um Nannhausen anzufliegen.

Flugplatz: Nannhausen ICAO-Code: EDRN
Frequenz Turm: 130,600 Mhz GAFOR Gebiet: 41
Frequenz Ground: 130,600 Mhz Mogas: nein
Platzrunde: NW/SE 2200 ft Landegebühr: -
Platzhöhe: - Sunrise: 04:08 Uhr UTC
Pisten: 06/24 - 560 m x 30 m, GRAS Sunset: 19:02 Uhr UTC

Mitglieder, die in Nannhausen fliegen

Flugwetter am Flugplatz Nannhausen

Die METAR Information stammen aus EDFH (15.56 km entfernt).

METAR Code:
2020/08/04 20:50
EDFH 042050Z 04004KT CAVOK 15/07 Q1018

Flugschulen am Flugplatz Nannhausen

Am Flugplatz Nannhausen gibt es leider keine Flugschule.

Benachbarte Flugplätze und Flugschulen

Es gibt 20 weitere Flugplätze in einem Umkreis von 50 km um den Flugplatz Nannhausen.

Jetzt anmelden

Passwort vergessen

Umfrage Archiv

Wären Rettungsgeräte keine Pflicht mehr, würdet Ihr Euer UL trotzdem mit einem ausstatten?

Ja
82.9 %
Nein
17.1 %
Stimmen: 251 | Diskussion
Anzeige: Roland Aircraft
Statistik Alle Mitglieder

Aktuell sind 66 Besucher online, davon 1 Mitglied und 65 Gäste.


Mitglieder online:
torsten 

Anzeige: VFR Sprechfunk Simulator


Anzeige: Pocket FMS